createdAt,value
2018-09-30T00:02:20.654Z,101140.48
2018-09-30T00:04:52.190Z,101143.00
2018-09-30T00:07:24.191Z,101134.29
2018-09-30T00:09:55.746Z,101141.64
2018-09-30T00:12:27.284Z,101130.33
2018-09-30T00:14:58.764Z,101140.73
2018-09-30T00:17:30.197Z,101124.90
2018-09-30T00:20:01.714Z,101131.94
2018-09-30T00:22:33.305Z,101129.23
2018-09-30T00:25:09.890Z,101130.22
2018-09-30T00:27:41.515Z,101118.37
2018-09-30T00:30:13.187Z,101120.77
2018-09-30T00:32:44.647Z,101118.45
2018-09-30T00:35:16.205Z,101118.08
2018-09-30T00:37:47.720Z,101118.45
2018-09-30T00:40:19.194Z,101117.46
2018-09-30T00:42:50.688Z,101114.86
2018-09-30T00:45:22.187Z,101115.17
2018-09-30T00:47:53.646Z,101115.06
2018-09-30T00:50:25.255Z,101105.67
2018-09-30T00:52:56.704Z,101106.86
2018-09-30T00:55:28.417Z,101102.25
2018-09-30T00:57:59.749Z,101096.70
2018-09-30T01:00:30.791Z,101103.06
2018-09-30T01:03:02.017Z,101102.55
2018-09-30T01:05:33.641Z,101096.25
2018-09-30T01:08:04.951Z,101086.81
2018-09-30T01:10:35.578Z,101091.98
2018-09-30T01:13:06.897Z,101092.17
2018-09-30T01:15:38.389Z,101092.57
2018-09-30T01:18:09.726Z,101082.67
2018-09-30T01:20:41.361Z,101074.51
2018-09-30T01:23:12.772Z,101077.53
2018-09-30T01:25:44.203Z,101073.75
2018-09-30T01:28:15.673Z,101068.63
2018-09-30T01:30:47.190Z,101064.89
2018-09-30T01:33:18.657Z,101063.67
2018-09-30T01:35:50.223Z,101065.09
2018-09-30T01:38:21.731Z,101070.01
2018-09-30T01:40:52.748Z,101068.12
2018-09-30T01:43:23.743Z,101063.14
2018-09-30T01:45:55.308Z,101058.22
2018-09-30T01:48:26.787Z,101055.53
2018-09-30T01:50:58.372Z,101043.09
2018-09-30T01:53:29.830Z,101050.08
2018-09-30T01:56:01.404Z,101046.55
2018-09-30T01:58:32.717Z,101042.64
2018-09-30T02:01:04.312Z,101042.64
2018-09-30T02:03:35.706Z,101035.48
2018-09-30T02:06:07.199Z,101031.98
2018-09-30T02:08:38.655Z,101034.19
2018-09-30T02:11:10.119Z,101026.50
2018-09-30T02:13:41.667Z,101017.65
2018-09-30T02:16:13.203Z,101017.91
2018-09-30T02:18:44.662Z,101016.17
2018-09-30T02:21:15.916Z,101013.66
2018-09-30T02:23:47.535Z,101012.78
2018-09-30T02:26:19.298Z,101010.61
2018-09-30T02:28:50.790Z,101009.70
2018-09-30T02:31:21.858Z,101005.75
2018-09-30T02:33:53.246Z,101009.00
2018-09-30T02:36:24.474Z,101012.42
2018-09-30T02:38:55.799Z,101013.27
2018-09-30T02:41:26.820Z,101005.23
2018-09-30T02:43:58.055Z,101005.89
2018-09-30T02:46:28.687Z,101001.82
2018-09-30T02:49:00.198Z,101006.91
2018-09-30T02:51:31.724Z,101006.97
2018-09-30T02:54:03.246Z,101004.73
2018-09-30T02:56:34.732Z,101004.39
2018-09-30T02:59:06.196Z,100998.27
2018-09-30T03:01:37.721Z,101001.68
2018-09-30T03:04:08.742Z,100998.77
2018-09-30T03:06:44.797Z,100998.58
2018-09-30T03:09:18.640Z,100996.59
2018-09-30T03:11:50.202Z,100988.36
2018-09-30T03:14:21.394Z,100984.94
2018-09-30T03:16:52.758Z,100981.66
2018-09-30T03:19:23.838Z,100975.12
2018-09-30T03:21:55.641Z,100974.20
2018-09-30T03:24:27.196Z,100979.91
2018-09-30T03:26:58.410Z,100974.01
2018-09-30T03:29:30.195Z,100983.00
2018-09-30T03:32:01.736Z,100969.43
2018-09-30T03:34:33.411Z,100961.09
2018-09-30T03:37:04.706Z,100957.98
2018-09-30T03:39:36.071Z,100953.41
2018-09-30T03:42:07.692Z,100951.03
2018-09-30T03:44:39.200Z,100944.76
2018-09-30T03:47:10.617Z,100948.44
2018-09-30T03:49:41.594Z,100938.29
2018-09-30T03:52:12.655Z,100936.62
2018-09-30T03:54:43.700Z,100940.35
2018-09-30T03:57:14.741Z,100941.20
2018-09-30T03:59:45.889Z,100932.84
2018-09-30T04:02:17.016Z,100935.24
2018-09-30T04:04:48.726Z,100940.17
2018-09-30T04:07:19.773Z,100936.98
2018-09-30T04:09:50.774Z,100940.35
2018-09-30T04:12:22.375Z,100939.00
2018-09-30T04:14:53.856Z,100934.22
2018-09-30T04:17:25.463Z,100926.59
2018-09-30T04:19:56.769Z,100923.55
2018-09-30T04:22:28.275Z,100922.20
2018-09-30T04:24:59.749Z,100908.13
2018-09-30T04:27:31.438Z,100913.55
2018-09-30T04:30:02.780Z,100908.62
2018-09-30T04:32:34.222Z,100907.45
2018-09-30T04:35:05.705Z,100905.03
2018-09-30T04:37:37.197Z,100906.09
2018-09-30T04:40:09.059Z,100904.74
2018-09-30T04:42:40.727Z,100902.37
2018-09-30T04:45:12.291Z,100901.66
2018-09-30T04:47:43.775Z,100905.41
2018-09-30T04:50:15.335Z,100908.76
2018-09-30T04:52:46.815Z,100904.38
2018-09-30T04:55:18.354Z,100897.59
2018-09-30T04:57:49.803Z,100897.27
2018-09-30T05:00:21.259Z,100890.94
2018-09-30T05:02:52.723Z,100898.37
2018-09-30T05:05:24.266Z,100897.87
2018-09-30T05:07:55.792Z,100895.71
2018-09-30T05:10:26.947Z,100898.28
2018-09-30T05:12:58.547Z,100899.74
2018-09-30T05:15:30.194Z,100897.61
2018-09-30T05:18:01.719Z,100894.90
2018-09-30T05:20:33.653Z,100897.93
2018-09-30T05:23:05.196Z,100897.41
2018-09-30T05:25:36.668Z,100892.98
2018-09-30T05:28:08.290Z,100895.54
2018-09-30T05:30:39.723Z,100884.33
2018-09-30T05:33:11.300Z,100881.60
2018-09-30T05:35:42.883Z,100889.42
2018-09-30T05:38:14.438Z,100894.87
2018-09-30T05:40:45.756Z,100894.04
2018-09-30T05:43:17.293Z,100893.19
2018-09-30T05:45:48.814Z,100893.88
2018-09-30T05:48:20.405Z,100895.53
2018-09-30T05:50:51.801Z,100896.53
2018-09-30T05:53:23.307Z,100894.80
2018-09-30T05:55:54.780Z,100893.76
2018-09-30T05:58:26.521Z,100892.36
2018-09-30T06:00:57.887Z,100896.59
2018-09-30T06:03:29.486Z,100895.70
2018-09-30T06:06:01.054Z,100895.33
2018-09-30T06:08:32.723Z,100890.23
2018-09-30T06:11:04.186Z,100894.23
2018-09-30T06:13:35.666Z,100899.16
2018-09-30T06:16:07.404Z,100900.85
2018-09-30T06:18:38.731Z,100896.41
2018-09-30T06:21:09.787Z,100897.95
2018-09-30T06:23:40.839Z,100897.91
2018-09-30T06:26:18.996Z,100893.69
2018-09-30T06:28:49.571Z,100897.59
2018-09-30T06:31:20.971Z,100892.33
2018-09-30T06:33:52.244Z,100894.57
2018-09-30T06:36:23.670Z,100894.42
2018-09-30T06:38:55.195Z,100892.52
2018-09-30T06:41:26.669Z,100886.42
2018-09-30T06:43:57.899Z,100882.97
2018-09-30T06:46:29.632Z,100888.56
2018-09-30T06:49:01.203Z,100882.73
2018-09-30T06:51:32.687Z,100884.06
2018-09-30T06:54:04.203Z,100881.68
2018-09-30T06:56:35.687Z,100883.58
2018-09-30T06:59:07.281Z,100877.60
2018-09-30T07:01:38.695Z,100878.78
2018-09-30T07:04:10.334Z,100876.66
2018-09-30T07:06:41.728Z,100879.48
2018-09-30T07:09:13.212Z,100875.73
2018-09-30T07:11:44.753Z,100874.60
2018-09-30T07:14:16.397Z,100872.09
2018-09-30T07:16:48.021Z,100866.66
2018-09-30T07:19:19.504Z,100868.98
2018-09-30T07:21:50.897Z,100867.63
2018-09-30T07:24:25.190Z,100860.36
2018-09-30T07:26:56.735Z,100863.25
2018-09-30T07:29:28.597Z,100863.98
2018-09-30T07:31:59.573Z,100862.44
2018-09-30T07:34:30.963Z,100867.03
2018-09-30T07:37:01.662Z,100870.11
2018-09-30T07:39:33.265Z,100864.67
2018-09-30T07:42:04.719Z,100866.73
2018-09-30T07:44:36.197Z,100853.92
2018-09-30T07:47:07.692Z,100860.05
2018-09-30T07:49:39.215Z,100861.27
2018-09-30T07:52:11.215Z,100859.61
2018-09-30T07:54:42.843Z,100856.70
2018-09-30T07:57:14.006Z,100854.47
2018-09-30T07:59:45.625Z,100857.52
2018-09-30T08:02:16.969Z,100854.35
2018-09-30T08:04:48.653Z,100860.09
2018-09-30T08:07:20.215Z,100860.23
2018-09-30T08:09:51.700Z,100857.25
2018-09-30T08:12:23.038Z,100854.72
2018-09-30T08:14:53.689Z,100856.25
2018-09-30T08:17:25.477Z,100852.84
2018-09-30T08:19:56.987Z,100843.81
2018-09-30T08:22:28.547Z,100843.32
2018-09-30T08:24:59.990Z,100840.61
2018-09-30T08:27:31.513Z,100844.70
2018-09-30T08:30:03.219Z,100836.22
2018-09-30T08:32:34.723Z,100840.30
2018-09-30T08:35:10.187Z,100828.09
2018-09-30T08:37:47.477Z,100826.22
2018-09-30T08:40:24.206Z,100831.47
2018-09-30T08:42:55.648Z,100828.59
2018-09-30T08:45:26.750Z,100822.66
2018-09-30T08:47:58.429Z,100822.33
2018-09-30T08:50:29.774Z,100825.74
2018-09-30T08:53:00.813Z,100826.41
2018-09-30T08:55:32.408Z,100816.22
2018-09-30T08:58:03.915Z,100815.86
2018-09-30T09:00:35.371Z,100814.84
2018-09-30T09:03:06.767Z,100812.47
2018-09-30T09:05:37.759Z,100814.34
2018-09-30T09:08:09.664Z,100802.97
2018-09-30T09:10:41.207Z,100799.73
2018-09-30T09:13:12.720Z,100788.67
2018-09-30T09:15:44.312Z,100784.12
2018-09-30T09:18:16.204Z,100776.97
2018-09-30T09:20:47.710Z,100761.17
2018-09-30T09:23:19.287Z,100759.30
2018-09-30T09:25:50.699Z,100754.38
2018-09-30T09:28:23.451Z,100753.53
2018-09-30T09:30:54.785Z,100746.88
2018-09-30T09:33:25.787Z,100743.84
2018-09-30T09:35:57.218Z,100739.05
2018-09-30T09:38:28.817Z,100734.47
2018-09-30T09:41:00.013Z,100731.92
2018-09-30T09:43:31.509Z,100727.34
2018-09-30T09:46:02.912Z,100728.02
2018-09-30T09:48:34.643Z,100722.42
2018-09-30T09:51:06.298Z,100720.69
2018-09-30T09:53:37.813Z,100714.08
2018-09-30T09:56:09.307Z,100704.74
2018-09-30T09:58:40.742Z,100709.64
2018-09-30T10:01:12.617Z,100707.95
2018-09-30T10:03:43.975Z,100704.03
2018-09-30T10:06:14.643Z,100703.72
2018-09-30T10:08:46.234Z,100692.16
2018-09-30T10:11:17.796Z,100689.92
2018-09-30T10:13:49.318Z,100689.91
2018-09-30T10:16:21.880Z,100679.06
2018-09-30T10:18:53.342Z,100668.83
2018-09-30T10:21:24.789Z,100662.22
2018-09-30T10:23:56.903Z,100656.44
2018-09-30T10:26:28.714Z,100649.29
2018-09-30T10:29:00.375Z,100646.73
2018-09-30T10:31:31.763Z,100636.39
2018-09-30T10:34:03.420Z,100639.80
2018-09-30T10:36:34.889Z,100642.82
2018-09-30T10:39:08.861Z,100639.61
2018-09-30T10:41:40.799Z,100642.14
2018-09-30T10:44:12.315Z,100641.13
2018-09-30T10:46:45.530Z,100639.77
2018-09-30T10:49:18.841Z,100635.19
2018-09-30T10:51:50.535Z,100630.92
2018-09-30T10:54:22.387Z,100626.84
2018-09-30T10:56:54.083Z,100623.63
2018-09-30T10:59:25.807Z,100624.45
2018-09-30T11:01:57.403Z,100617.46
2018-09-30T11:04:28.749Z,100619.34
2018-09-30T11:07:00.328Z,100614.93
2018-09-30T11:09:31.505Z,100612.05
2018-09-30T11:12:03.569Z,100613.58
2018-09-30T11:14:35.519Z,100612.38
2018-09-30T11:17:07.014Z,100605.22
2018-09-30T11:19:38.726Z,100594.14
2018-09-30T11:22:10.384Z,100586.02
2018-09-30T11:24:41.873Z,100585.30
2018-09-30T11:27:13.525Z,100574.24
2018-09-30T11:29:44.981Z,100567.48
2018-09-30T11:32:15.597Z,100556.12
2018-09-30T11:34:47.197Z,100548.96
2018-09-30T11:37:18.703Z,100544.55
2018-09-30T11:39:50.505Z,100538.08
2018-09-30T11:42:22.195Z,100535.35
2018-09-30T11:44:53.661Z,100530.27
2018-09-30T11:47:25.204Z,100529.59
2018-09-30T11:49:56.754Z,100529.56
2018-09-30T11:52:28.770Z,100525.51
2018-09-30T11:55:00.320Z,100525.98
2018-09-30T11:57:32.319Z,100526.47
2018-09-30T12:00:03.722Z,100529.88
2018-09-30T12:02:35.307Z,100519.03
2018-09-30T12:05:07.421Z,100517.67
2018-09-30T12:07:39.555Z,100517.41
2018-09-30T12:10:10.869Z,100503.52
2018-09-30T12:12:42.351Z,100507.13
2018-09-30T12:15:13.903Z,100503.86
2018-09-30T12:17:45.511Z,100498.67
2018-09-30T12:20:17.206Z,100497.77
2018-09-30T12:22:48.722Z,100498.36
2018-09-30T12:25:19.885Z,100497.22
2018-09-30T12:27:51.674Z,100499.71
2018-09-30T12:30:23.237Z,100491.02
2018-09-30T12:32:54.650Z,100488.66
2018-09-30T12:35:26.219Z,100481.33
2018-09-30T12:37:57.709Z,100477.76
2018-09-30T12:40:29.201Z,100474.37
2018-09-30T12:43:00.788Z,100466.39
2018-09-30T12:45:32.456Z,100461.81
2018-09-30T12:48:03.797Z,100461.52
2018-09-30T12:50:35.396Z,100448.56
2018-09-30T12:53:07.419Z,100446.30
2018-09-30T12:55:38.839Z,100446.67
2018-09-30T12:58:10.541Z,100438.20
2018-09-30T13:00:41.868Z,100430.05
2018-09-30T13:03:13.319Z,100424.97
2018-09-30T13:05:44.872Z,100423.31
2018-09-30T13:08:15.890Z,100419.16
2018-09-30T13:10:47.180Z,100415.59
2018-09-30T13:13:18.670Z,100412.69
2018-09-30T13:15:49.902Z,100399.91
2018-09-30T13:20:02.923Z,100398.80
2018-09-30T13:22:33.978Z,100394.77
2018-09-30T13:25:05.338Z,100397.64
2018-09-30T13:27:36.729Z,100398.11
2018-09-30T13:30:07.791Z,100395.59
2018-09-30T13:32:39.190Z,100390.34
2018-09-30T13:35:10.729Z,100383.14
2018-09-30T13:37:42.216Z,100380.79
2018-09-30T13:40:13.887Z,100388.61
2018-09-30T13:42:45.422Z,100385.36
2018-09-30T13:45:17.207Z,100378.06
2018-09-30T13:47:48.726Z,100372.39
2018-09-30T13:50:20.197Z,100369.67
2018-09-30T13:52:51.756Z,100365.97
2018-09-30T13:55:23.515Z,100355.78
2018-09-30T13:57:54.781Z,100349.03
2018-09-30T14:00:26.420Z,100329.02
2018-09-30T14:02:57.926Z,100340.05
2018-09-30T14:05:29.815Z,100332.55
2018-09-30T14:08:01.225Z,100318.73
2018-09-30T14:10:32.758Z,100325.47
2018-09-30T14:13:04.318Z,100316.08
2018-09-30T14:15:35.791Z,100320.11
2018-09-30T14:18:07.312Z,100309.94
2018-09-30T14:20:38.808Z,100309.18
2018-09-30T14:23:10.503Z,100311.02
2018-09-30T14:25:42.872Z,100310.58
2018-09-30T14:28:14.443Z,100299.86
2018-09-30T14:30:45.895Z,100308.73
2018-09-30T14:33:17.400Z,100304.55
2018-09-30T14:35:48.748Z,100297.45
2018-09-30T14:40:58.867Z,100295.11
2018-09-30T14:43:29.838Z,100293.75
2018-09-30T14:46:00.813Z,100291.31
2018-09-30T14:48:32.515Z,100287.92
2018-09-30T14:51:03.920Z,100285.00
2018-09-30T14:53:34.543Z,100280.25
2018-09-30T14:56:05.956Z,100275.67
2018-09-30T14:58:36.574Z,100277.09
2018-09-30T15:01:08.312Z,100276.26
2018-09-30T15:03:39.810Z,100273.02
2018-09-30T15:06:11.797Z,100271.89
2018-09-30T15:08:43.207Z,100269.19
2018-09-30T15:11:14.657Z,100270.67
2018-09-30T15:13:46.213Z,100267.64
2018-09-30T15:16:17.634Z,100266.02
2018-09-30T15:18:49.203Z,100264.23
2018-09-30T15:21:20.775Z,100256.38
2018-09-30T15:23:52.315Z,100252.16
2018-09-30T15:26:23.723Z,100249.78
2018-09-30T15:28:55.328Z,100240.48
2018-09-30T15:31:26.796Z,100245.20
2018-09-30T15:33:58.199Z,100243.53
2018-09-30T15:36:29.711Z,100243.77
2018-09-30T15:39:01.212Z,100234.09
2018-09-30T15:41:32.880Z,100234.13
2018-09-30T15:44:05.544Z,100219.85
2018-09-30T15:46:37.362Z,100229.06
2018-09-30T15:49:09.291Z,100224.70
2018-09-30T15:51:40.719Z,100224.41
2018-09-30T15:54:12.407Z,100228.50
2018-09-30T15:56:43.768Z,100226.33
2018-09-30T15:59:15.297Z,100225.20
2018-09-30T16:01:46.704Z,100226.53
2018-09-30T16:04:18.315Z,100225.87
2018-09-30T16:06:49.713Z,100232.01
2018-09-30T16:09:21.905Z,100223.91
2018-09-30T16:11:53.747Z,100225.06
2018-09-30T16:14:25.581Z,100231.02
2018-09-30T16:16:56.985Z,100227.98
2018-09-30T16:19:28.578Z,100226.04
2018-09-30T16:21:59.856Z,100228.45
2018-09-30T16:24:31.388Z,100228.07
2018-09-30T16:27:02.835Z,100232.64
2018-09-30T16:29:34.364Z,100216.84
2018-09-30T16:32:05.889Z,100216.67
2018-09-30T16:34:37.517Z,100212.59
2018-09-30T16:37:08.863Z,100212.77
2018-09-30T16:39:40.539Z,100218.14
2018-09-30T16:42:12.291Z,100210.70
2018-09-30T16:44:43.762Z,100209.55
2018-09-30T16:47:15.381Z,100208.39
2018-09-30T16:49:46.989Z,100205.36
2018-09-30T16:52:18.517Z,100195.52
2018-09-30T16:54:50.429Z,100204.75
2018-09-30T16:57:21.847Z,100203.05
2018-09-30T16:59:53.383Z,100199.72
2018-09-30T17:02:24.703Z,100197.98
2018-09-30T17:04:56.409Z,100198.79
2018-09-30T17:07:27.843Z,100200.33
2018-09-30T17:09:58.770Z,100200.01
2018-09-30T17:12:29.790Z,100189.09
2018-09-30T17:15:01.392Z,100194.56
2018-09-30T17:17:32.720Z,100194.25
2018-09-30T17:20:04.496Z,100196.23
2018-09-30T17:22:35.889Z,100197.60
2018-09-30T17:25:07.603Z,100197.38
2018-09-30T17:27:39.780Z,100197.23
2018-09-30T17:30:11.298Z,100190.29
2018-09-30T17:32:42.752Z,100194.59
2018-09-30T17:35:14.351Z,100192.79
2018-09-30T17:37:45.780Z,100191.46
2018-09-30T17:40:17.312Z,100196.48
2018-09-30T17:42:48.665Z,100193.44
2018-09-30T17:45:19.922Z,100194.42
2018-09-30T17:47:50.541Z,100190.48
2018-09-30T17:50:22.200Z,100186.72
2018-09-30T17:52:53.739Z,100183.95
2018-09-30T17:55:25.287Z,100185.25
2018-09-30T17:57:56.707Z,100177.16
2018-09-30T18:00:28.212Z,100179.20
2018-09-30T18:02:59.704Z,100179.59
2018-09-30T18:05:31.363Z,100177.41
2018-09-30T18:08:02.898Z,100173.33
2018-09-30T18:10:34.408Z,100175.16
2018-09-30T18:13:05.890Z,100183.52
2018-09-30T18:15:38.891Z,100179.47
2018-09-30T18:18:11.950Z,100173.88
2018-09-30T18:20:43.979Z,100174.11
2018-09-30T18:23:16.761Z,100173.27
2018-09-30T18:25:48.372Z,100171.67
2018-09-30T18:28:23.396Z,100167.59
2018-09-30T18:30:56.440Z,100167.88
2018-09-30T18:33:29.052Z,100159.08
2018-09-30T18:36:01.366Z,100156.71
2018-09-30T18:38:34.335Z,100158.77
2018-09-30T18:41:06.215Z,100156.06
2018-09-30T18:43:37.907Z,100152.66
2018-09-30T18:46:12.022Z,100152.19
2018-09-30T18:48:44.691Z,100155.48
2018-09-30T18:51:17.189Z,100148.06
2018-09-30T18:53:49.873Z,100143.39
2018-09-30T18:56:22.342Z,100144.14
2018-09-30T18:58:54.648Z,100143.95
2018-09-30T19:01:27.343Z,100145.32
2018-09-30T19:03:58.860Z,100143.00
2018-09-30T19:06:31.236Z,100134.25
2018-09-30T19:09:04.216Z,100146.08
2018-09-30T19:11:36.751Z,100139.98
2018-09-30T19:14:09.444Z,100139.66
2018-09-30T19:16:41.911Z,100138.68
2018-09-30T19:19:14.446Z,100140.28
2018-09-30T19:21:47.513Z,100139.33
2018-09-30T19:24:19.734Z,100134.58
2018-09-30T19:26:52.226Z,100135.09
2018-09-30T19:29:24.928Z,100129.72
2018-09-30T19:31:56.720Z,100128.08
2018-09-30T19:34:28.384Z,100126.08
2018-09-30T19:37:01.218Z,100124.86
2018-09-30T19:39:33.860Z,100132.78
2018-09-30T19:42:05.851Z,100130.64
2018-09-30T19:44:38.688Z,100126.30
2018-09-30T19:49:31.221Z,100122.22
2018-09-30T19:52:03.606Z,100119.36
2018-09-30T19:54:35.715Z,100120.34
2018-09-30T19:57:09.323Z,100118.92
2018-09-30T19:59:41.708Z,100122.53
2018-09-30T20:02:14.052Z,100116.95
2018-09-30T20:04:46.355Z,100124.27
2018-09-30T20:07:19.231Z,100121.42
2018-09-30T20:09:50.583Z,100117.57
2018-09-30T20:12:21.820Z,100119.97
2018-09-30T20:14:53.337Z,100116.23
2018-09-30T20:17:24.752Z,100125.28
2018-09-30T20:19:56.592Z,100115.69
2018-09-30T20:22:29.308Z,100104.43
2018-09-30T20:25:00.937Z,100104.67
2018-09-30T20:27:32.661Z,100103.83
2018-09-30T20:30:04.311Z,100101.58
2018-09-30T20:32:35.841Z,100099.23
2018-09-30T20:35:06.809Z,100098.20
2018-09-30T20:37:38.743Z,100093.28
2018-09-30T20:40:10.644Z,100091.25
2018-09-30T20:42:42.205Z,100092.66
2018-09-30T20:45:13.725Z,100084.59
2018-09-30T20:47:45.188Z,100080.29
2018-09-30T20:50:16.699Z,100078.11
2018-09-30T20:52:48.190Z,100076.81
2018-09-30T20:55:19.768Z,100077.97
2018-09-30T20:57:51.359Z,100071.55
2018-09-30T21:00:22.796Z,100074.95
2018-09-30T21:02:54.398Z,100067.15
2018-09-30T21:05:46.391Z,100057.44
2018-09-30T21:08:17.739Z,100059.08
2018-09-30T21:10:49.304Z,100051.22
2018-09-30T21:13:20.773Z,100056.82
2018-09-30T21:15:52.021Z,100058.20
2018-09-30T21:18:23.344Z,100060.13
2018-09-30T21:20:54.740Z,100051.48
2018-09-30T21:23:26.296Z,100044.04
2018-09-30T21:25:58.443Z,100055.96
2018-09-30T21:28:29.877Z,100056.80
2018-09-30T21:31:01.391Z,100051.00
2018-09-30T21:33:32.771Z,100053.41
2018-09-30T21:36:03.826Z,100049.71
2018-09-30T21:38:35.192Z,100054.31
2018-09-30T21:41:06.666Z,100056.13
2018-09-30T21:43:38.297Z,100058.52
2018-09-30T21:46:09.780Z,100047.98
2018-09-30T21:48:41.400Z,100051.05
2018-09-30T21:51:12.694Z,100044.56
2018-09-30T21:53:44.066Z,100043.44
2018-09-30T21:56:15.695Z,100044.63
2018-09-30T21:58:47.267Z,100046.99
2018-09-30T22:01:18.814Z,100039.53
2018-09-30T22:03:50.432Z,100037.98
2018-09-30T22:06:21.783Z,100050.36
2018-09-30T22:08:53.200Z,100044.06
2018-09-30T22:11:24.729Z,100038.70
2018-09-30T22:13:56.210Z,100021.44
2018-09-30T22:16:27.654Z,100025.36
2018-09-30T22:18:59.197Z,100012.06
2018-09-30T22:21:30.681Z,100013.79
2018-09-30T22:24:02.348Z,100010.10
2018-09-30T22:26:33.856Z,100012.65
2018-09-30T22:29:05.278Z,100011.93
2018-09-30T22:31:36.729Z,100006.85
2018-09-30T22:34:08.365Z,100004.80
2018-09-30T22:36:39.857Z,100007.59
2018-09-30T22:39:11.364Z,100002.49
2018-09-30T22:41:42.772Z,100001.64
2018-09-30T22:44:14.249Z,99980.61
2018-09-30T22:46:45.729Z,99992.66
2018-09-30T22:49:17.396Z,99985.27
2018-09-30T22:51:48.809Z,99998.08
2018-09-30T22:54:20.199Z,99999.30
2018-09-30T22:56:51.699Z,99995.84
2018-09-30T22:59:23.207Z,99992.45
2018-09-30T23:01:54.716Z,99993.71
2018-09-30T23:04:26.202Z,99996.53
2018-09-30T23:06:57.697Z,99990.84
2018-09-30T23:09:29.314Z,99995.08
2018-09-30T23:12:00.786Z,99994.95
2018-09-30T23:14:32.219Z,99993.19
2018-09-30T23:17:03.769Z,99989.79
2018-09-30T23:19:35.309Z,99978.63
2018-09-30T23:22:06.773Z,99983.70
2018-09-30T23:24:38.308Z,99986.05
2018-09-30T23:27:09.744Z,100002.09
2018-09-30T23:29:41.311Z,100001.72
2018-09-30T23:32:12.867Z,100013.41
2018-09-30T23:34:44.346Z,100008.89
2018-09-30T23:37:15.796Z,100004.45
2018-09-30T23:39:47.342Z,100000.58
2018-09-30T23:42:18.776Z,99998.70
2018-09-30T23:44:50.228Z,100002.56
2018-09-30T23:47:21.656Z,100001.03
2018-09-30T23:49:53.205Z,100001.70
2018-09-30T23:52:24.627Z,100006.98
2018-09-30T23:54:55.980Z,100002.56
2018-09-30T23:57:26.563Z,99996.83
2018-09-30T23:59:57.987Z,99997.19
